Roscommon, Ireland
Current Conditions -  °F | °C
As of 6:00 AM on Thursday 29 Jan 2015 (Local Time) from EIKN Reporting Station
Broken Clouds Broken Clouds  
Wind Chill: 23°   Ceiling: 2000
Heat Index: 34°   Visibility: 6mi
Dew Point: 32°   Wind: 17mph
Humidity: 93%   Direction: 290°WNW
Pressure: 29.12"   Gusts: NA
Location:  53.64°N, 8.2°W
Report Text: EIKN 290600Z 29015KT 250V320 9999 FEW015 BKN020CB 01/M00 Q0986 R27//99// NOSIG
Loading
Personal Weather Stations






























Interactive Weather Map New forecast layout! Learn more

10-Day Weather Forecast

Advertisements
Track Severe Weather on mobile